createdAt,value
2022-11-21T00:01:24.121Z,80.22
2022-11-21T00:03:50.929Z,80.20
2022-11-21T00:06:18.269Z,79.79
2022-11-21T00:08:44.984Z,78.56
2022-11-21T00:11:13.025Z,79.93
2022-11-21T00:13:39.517Z,79.76
2022-11-21T00:16:07.709Z,79.50
2022-11-21T00:18:35.101Z,79.68
2022-11-21T00:21:10.190Z,79.44
2022-11-21T00:23:36.519Z,79.77
2022-11-21T00:26:11.387Z,79.33
2022-11-21T00:28:38.072Z,78.93
2022-11-21T00:31:05.833Z,78.95
2022-11-21T00:33:34.669Z,79.46
2022-11-21T00:36:07.355Z,78.55
2022-11-21T00:38:33.679Z,79.50
2022-11-21T00:41:00.003Z,79.38
2022-11-21T00:43:26.336Z,79.46
2022-11-21T00:45:52.729Z,79.21
2022-11-21T00:48:19.066Z,78.90
2022-11-21T00:50:49.695Z,79.09
2022-11-21T00:53:16.032Z,79.23
2022-11-21T00:55:42.429Z,79.62
2022-11-21T00:58:08.753Z,79.69
2022-11-21T01:00:35.144Z,79.68
2022-11-21T01:03:01.629Z,79.60
2022-11-21T01:05:27.957Z,79.63
2022-11-21T01:07:54.289Z,78.94
2022-11-21T01:10:20.649Z,78.68
2022-11-21T01:12:46.942Z,78.90
2022-11-21T01:15:13.409Z,78.56
2022-11-21T01:17:39.714Z,78.25
2022-11-21T01:20:07.016Z,78.35
2022-11-21T01:22:33.459Z,78.64
2022-11-21T01:24:59.778Z,78.19
2022-11-21T01:27:26.150Z,77.96
2022-11-21T01:29:52.490Z,78.37
2022-11-21T01:32:18.846Z,78.13
2022-11-21T01:34:45.146Z,78.13
2022-11-21T01:37:11.469Z,78.31
2022-11-21T01:39:37.824Z,77.98
2022-11-21T01:42:04.271Z,78.11
2022-11-21T01:44:52.099Z,77.63
2022-11-21T01:47:18.981Z,77.82
2022-11-21T01:49:46.986Z,77.67
2022-11-21T01:52:24.814Z,76.89
2022-11-21T01:55:05.049Z,77.73
2022-11-21T01:57:37.055Z,77.86
2022-11-21T02:00:11.109Z,78.15
2022-11-21T02:02:41.966Z,77.66
2022-11-21T02:05:13.350Z,77.88
2022-11-21T02:07:43.252Z,77.48
2022-11-21T02:10:10.452Z,77.39
2022-11-21T02:12:48.059Z,77.64
2022-11-21T02:15:15.093Z,77.48
2022-11-21T02:17:41.597Z,77.38
2022-11-21T02:20:14.629Z,77.69
2022-11-21T02:22:59.714Z,77.54
2022-11-21T02:25:29.437Z,77.01
2022-11-21T02:28:01.323Z,77.43
2022-11-21T02:30:30.782Z,76.90
2022-11-21T02:32:58.299Z,76.98
2022-11-21T02:35:24.940Z,77.39
2022-11-21T02:37:58.077Z,76.91
2022-11-21T02:40:29.031Z,77.23
2022-11-21T02:43:10.612Z,76.85
2022-11-21T02:45:42.567Z,76.39
2022-11-21T02:48:09.722Z,76.50
2022-11-21T02:50:39.020Z,76.74
2022-11-21T02:53:07.896Z,76.67
2022-11-21T02:55:34.932Z,75.63
2022-11-21T02:58:04.831Z,76.00
2022-11-21T03:00:33.686Z,76.42
2022-11-21T03:03:00.001Z,77.09
2022-11-21T03:05:26.488Z,77.14
2022-11-21T03:07:52.871Z,76.12
2022-11-21T03:10:19.240Z,76.78
2022-11-21T03:12:45.614Z,77.05
2022-11-21T03:15:14.357Z,77.87
2022-11-21T03:17:41.436Z,77.68
2022-11-21T03:20:08.673Z,78.51
2022-11-21T03:22:35.037Z,78.06
2022-11-21T03:25:01.415Z,78.13
2022-11-21T03:27:27.730Z,78.99
2022-11-21T03:29:54.082Z,80.05
2022-11-21T03:32:20.395Z,80.22
2022-11-21T03:34:46.887Z,80.90
2022-11-21T03:37:13.253Z,80.23
2022-11-21T03:39:39.565Z,80.33
2022-11-21T03:42:05.884Z,80.70
2022-11-21T03:44:32.263Z,80.90
2022-11-21T03:46:58.770Z,80.85
2022-11-21T03:49:25.314Z,81.50
2022-11-21T03:51:51.654Z,81.35
2022-11-21T03:54:18.000Z,81.40
2022-11-21T03:56:44.309Z,82.39
2022-11-21T03:59:10.686Z,82.06
2022-11-21T04:01:37.271Z,82.13
2022-11-21T04:04:04.861Z,81.72
2022-11-21T04:06:31.598Z,81.03
2022-11-21T04:08:58.192Z,82.18
2022-11-21T04:11:24.552Z,81.31
2022-11-21T04:13:51.777Z,80.78
2022-11-21T04:16:18.414Z,80.15
2022-11-21T04:18:45.211Z,80.53
2022-11-21T04:21:11.595Z,79.87
2022-11-21T04:23:37.923Z,79.60
2022-11-21T04:26:04.406Z,79.94
2022-11-21T04:28:31.353Z,79.35
2022-11-21T04:31:09.944Z,79.63
2022-11-21T04:33:37.701Z,79.32
2022-11-21T04:36:04.247Z,79.05
2022-11-21T04:38:30.577Z,79.63
2022-11-21T04:40:56.896Z,79.49
2022-11-21T04:43:23.223Z,79.44
2022-11-21T04:45:49.557Z,79.10
2022-11-21T04:48:15.862Z,79.32
2022-11-21T04:50:42.393Z,78.87
2022-11-21T04:53:08.709Z,79.36
2022-11-21T04:55:35.047Z,79.46
2022-11-21T04:58:01.497Z,79.24
2022-11-21T05:00:28.137Z,79.02
2022-11-21T05:02:54.474Z,78.96
2022-11-21T05:05:20.805Z,78.65
2022-11-21T05:07:47.129Z,78.72
2022-11-21T05:10:13.453Z,78.33
2022-11-21T05:12:58.360Z,78.48
2022-11-21T05:15:25.243Z,78.23
2022-11-21T05:17:52.345Z,78.37
2022-11-21T05:20:18.929Z,78.79
2022-11-21T05:22:49.834Z,78.80
2022-11-21T05:25:16.503Z,78.50
2022-11-21T05:27:42.906Z,78.27
2022-11-21T05:30:10.293Z,78.55
2022-11-21T05:32:36.697Z,78.67
2022-11-21T05:35:03.297Z,80.10
2022-11-21T05:37:29.610Z,81.25
2022-11-21T05:39:55.929Z,82.28
2022-11-21T05:42:42.205Z,82.93
2022-11-21T05:45:09.178Z,83.06
2022-11-21T05:47:35.484Z,83.43
2022-11-21T05:50:01.834Z,84.07
2022-11-21T05:52:28.611Z,83.78
2022-11-21T05:54:54.913Z,84.19
2022-11-21T05:57:21.237Z,85.32
2022-11-21T05:59:47.617Z,84.56
2022-11-21T06:02:32.666Z,84.84
2022-11-21T06:04:58.969Z,83.95
2022-11-21T06:07:25.349Z,84.40
2022-11-21T06:09:51.708Z,84.13
2022-11-21T06:12:22.773Z,82.99
2022-11-21T06:14:51.702Z,82.30
2022-11-21T06:17:18.031Z,81.86
2022-11-21T06:19:44.329Z,82.47
2022-11-21T06:22:10.641Z,83.20
2022-11-21T06:24:36.936Z,83.47
2022-11-21T06:27:03.262Z,83.92
2022-11-21T06:29:29.563Z,84.07
2022-11-21T06:31:55.984Z,83.22
2022-11-21T06:34:22.345Z,83.82
2022-11-21T06:36:49.394Z,82.44
2022-11-21T06:39:16.127Z,81.57
2022-11-21T06:41:42.547Z,82.70
2022-11-21T06:44:08.944Z,82.21
2022-11-21T06:46:35.308Z,82.44
2022-11-21T06:49:01.710Z,82.31
2022-11-21T06:51:28.069Z,82.74
2022-11-21T06:53:56.861Z,81.64
2022-11-21T06:56:24.303Z,80.72
2022-11-21T06:58:50.629Z,81.06
2022-11-21T07:01:17.117Z,80.36
2022-11-21T07:03:43.495Z,79.98
2022-11-21T07:06:09.861Z,80.28
2022-11-21T07:08:36.690Z,80.98
2022-11-21T07:13:51.426Z,79.04
2022-11-21T07:16:17.741Z,78.63
2022-11-21T07:18:45.609Z,78.78
2022-11-21T07:21:11.964Z,78.54
2022-11-21T07:23:38.354Z,79.43
2022-11-21T07:26:10.959Z,79.17
2022-11-21T07:28:37.514Z,78.40
2022-11-21T07:31:08.498Z,77.22
2022-11-21T07:33:37.310Z,77.01
2022-11-21T07:36:04.101Z,76.71
2022-11-21T07:38:30.402Z,76.69
2022-11-21T07:40:57.013Z,78.10
2022-11-21T07:43:23.643Z,78.34
2022-11-21T07:45:49.978Z,77.85
2022-11-21T07:48:16.317Z,78.71
2022-11-21T07:50:42.710Z,78.73
2022-11-21T07:53:11.669Z,79.47
2022-11-21T07:55:40.806Z,79.15
2022-11-21T07:58:12.530Z,79.29
2022-11-21T08:00:40.639Z,79.32
2022-11-21T08:03:07.133Z,78.74
2022-11-21T08:05:44.223Z,78.63
2022-11-21T08:08:12.518Z,78.86
2022-11-21T08:10:40.647Z,78.92
2022-11-21T08:13:07.239Z,79.79
2022-11-21T08:15:33.553Z,78.76
2022-11-21T08:18:07.608Z,78.95
2022-11-21T08:20:33.910Z,78.81
2022-11-21T08:23:00.265Z,78.61
2022-11-21T08:25:26.598Z,78.66
2022-11-21T08:27:56.474Z,77.96
2022-11-21T08:30:22.880Z,77.94
2022-11-21T08:32:49.290Z,77.37
2022-11-21T08:35:15.894Z,77.04
2022-11-21T08:37:42.237Z,76.05
2022-11-21T08:40:09.196Z,76.50
2022-11-21T08:42:35.734Z,76.06
2022-11-21T08:45:02.043Z,75.81
2022-11-21T08:47:28.380Z,75.20
2022-11-21T08:49:54.800Z,75.53
2022-11-21T08:52:21.263Z,74.61
2022-11-21T08:54:50.585Z,74.69
2022-11-21T08:57:16.931Z,74.43
2022-11-21T08:59:43.245Z,74.10
2022-11-21T09:02:11.498Z,74.54
2022-11-21T09:04:38.361Z,74.35
2022-11-21T09:07:05.161Z,73.31
2022-11-21T09:09:31.494Z,73.74
2022-11-21T09:11:57.828Z,73.85
2022-11-21T09:14:42.903Z,74.20
2022-11-21T09:17:32.175Z,73.45
2022-11-21T09:19:59.045Z,73.44
2022-11-21T09:22:26.216Z,73.41
2022-11-21T09:24:52.598Z,72.94
2022-11-21T09:27:18.974Z,72.22
2022-11-21T09:29:51.082Z,72.35
2022-11-21T09:32:20.098Z,72.47
2022-11-21T09:34:46.413Z,71.68
2022-11-21T09:37:12.787Z,71.02
2022-11-21T09:39:39.106Z,70.87
2022-11-21T09:42:46.433Z,70.90
2022-11-21T09:45:21.486Z,70.96
2022-11-21T09:47:50.887Z,70.64
2022-11-21T09:50:32.650Z,69.18
2022-11-21T09:53:07.606Z,68.71
2022-11-21T09:55:44.150Z,67.65
2022-11-21T09:58:16.355Z,66.53
2022-11-21T10:00:42.814Z,66.55
2022-11-21T10:03:12.249Z,67.10
2022-11-21T10:05:47.000Z,67.52
2022-11-21T10:08:27.354Z,67.01
2022-11-21T10:11:17.791Z,66.53
2022-11-21T10:14:14.401Z,66.34
2022-11-21T10:16:51.725Z,66.57
2022-11-21T10:19:57.377Z,66.01
2022-11-21T10:22:44.954Z,65.84
2022-11-21T10:25:26.841Z,65.39
2022-11-21T10:28:02.525Z,65.10
2022-11-21T10:30:29.741Z,65.38
2022-11-21T10:33:01.700Z,65.17
2022-11-21T10:35:52.815Z,64.10
2022-11-21T10:38:24.220Z,62.41
2022-11-21T10:40:55.055Z,62.08
2022-11-21T10:43:43.121Z,62.64
2022-11-21T10:46:09.586Z,61.15
2022-11-21T10:48:36.374Z,60.04
2022-11-21T10:51:06.194Z,59.75
2022-11-21T10:53:51.303Z,60.51
2022-11-21T10:56:20.372Z,61.09
2022-11-21T10:58:52.012Z,60.97
2022-11-21T11:01:21.756Z,61.86
2022-11-21T11:04:26.236Z,62.31
2022-11-21T11:06:51.258Z,62.32
2022-11-21T11:09:36.015Z,61.84
2022-11-21T11:12:47.544Z,60.83
2022-11-21T11:15:23.607Z,59.95
2022-11-21T11:17:56.701Z,59.59
2022-11-21T11:20:43.761Z,59.85
2022-11-21T11:23:22.381Z,59.35
2022-11-21T11:26:00.395Z,59.02
2022-11-21T11:28:35.153Z,58.65
2022-11-21T11:31:01.590Z,57.36
2022-11-21T11:33:34.595Z,56.03
2022-11-21T11:36:15.480Z,56.38
2022-11-21T11:38:53.485Z,57.33
2022-11-21T11:41:27.210Z,57.53
2022-11-21T11:44:21.262Z,57.76
2022-11-21T11:47:28.429Z,56.29
2022-11-21T11:50:13.635Z,56.38
2022-11-21T11:53:17.405Z,55.48
2022-11-21T11:55:59.957Z,55.23
2022-11-21T11:58:40.197Z,55.28
2022-11-21T12:01:32.440Z,56.51
2022-11-21T12:04:10.233Z,55.79
2022-11-21T12:09:56.292Z,55.11
2022-11-21T12:12:25.895Z,54.12
2022-11-21T12:15:39.556Z,51.51
2022-11-21T12:18:20.828Z,51.76
2022-11-21T12:21:02.519Z,51.74
2022-11-21T12:23:33.497Z,51.27
2022-11-21T12:26:26.413Z,50.27
2022-11-21T12:29:00.060Z,50.88
2022-11-21T12:31:43.308Z,51.00
2022-11-21T12:34:34.452Z,51.21
2022-11-21T12:37:29.150Z,50.83
2022-11-21T12:40:10.773Z,49.73
2022-11-21T12:43:04.258Z,50.04
2022-11-21T12:45:33.825Z,49.80
2022-11-21T12:48:27.765Z,49.83
2022-11-21T12:51:34.505Z,49.27
2022-11-21T12:54:37.771Z,48.69
2022-11-21T12:57:15.749Z,48.38
2022-11-21T13:00:08.847Z,47.92
2022-11-21T13:02:52.110Z,47.95
2022-11-21T13:05:29.155Z,48.22
2022-11-21T13:08:21.278Z,47.90
2022-11-21T13:11:23.229Z,48.17
2022-11-21T13:13:59.396Z,48.07
2022-11-21T13:16:37.196Z,47.84
2022-11-21T13:19:17.153Z,47.18
2022-11-21T13:21:52.515Z,47.05
2022-11-21T13:24:43.834Z,47.56
2022-11-21T13:27:45.835Z,46.80
2022-11-21T13:30:12.111Z,46.90
2022-11-21T13:32:50.209Z,48.06
2022-11-21T13:35:16.488Z,47.43
2022-11-21T13:37:51.750Z,47.10
2022-11-21T13:40:27.594Z,46.28
2022-11-21T13:45:59.408Z,45.56
2022-11-21T13:48:28.638Z,45.22
2022-11-21T13:51:23.069Z,44.74
2022-11-21T13:54:19.453Z,45.02
2022-11-21T13:57:16.843Z,45.19
2022-11-21T14:00:01.987Z,44.99
2022-11-21T14:03:05.781Z,45.69
2022-11-21T14:05:47.792Z,45.72
2022-11-21T14:08:21.617Z,46.27
2022-11-21T14:10:50.771Z,46.81
2022-11-21T14:13:33.154Z,46.24
2022-11-21T14:16:29.993Z,46.43
2022-11-21T14:18:57.605Z,47.08
2022-11-21T14:21:27.438Z,47.59
2022-11-21T14:23:57.504Z,47.75
2022-11-21T14:26:25.451Z,47.72
2022-11-21T14:28:52.762Z,48.06
2022-11-21T14:31:19.218Z,48.07
2022-11-21T14:33:47.710Z,48.17
2022-11-21T14:36:18.335Z,48.25
2022-11-21T14:39:35.228Z,48.24
2022-11-21T14:41:54.333Z,48.86
2022-11-21T14:44:22.472Z,49.02
2022-11-21T14:46:50.611Z,48.98
2022-11-21T14:49:16.983Z,48.42
2022-11-21T14:51:48.165Z,48.34
2022-11-21T14:54:20.670Z,48.66
2022-11-21T14:56:49.616Z,49.08
2022-11-21T14:59:24.101Z,48.57
2022-11-21T15:01:56.689Z,48.71
2022-11-21T15:04:29.662Z,48.47
2022-11-21T15:06:56.298Z,48.18
2022-11-21T15:10:26.212Z,48.82
2022-11-21T15:12:11.508Z,49.19
2022-11-21T15:15:12.524Z,50.09
2022-11-21T15:17:47.787Z,49.94
2022-11-21T15:20:26.975Z,50.23
2022-11-21T15:22:59.687Z,50.43
2022-11-21T15:25:47.238Z,50.24
2022-11-21T15:28:18.198Z,50.21
2022-11-21T15:30:45.392Z,50.29
2022-11-21T15:33:16.281Z,50.35
2022-11-21T15:36:10.982Z,50.84
2022-11-21T15:38:49.699Z,51.53
2022-11-21T15:41:15.976Z,51.89
2022-11-21T15:43:45.272Z,52.04
2022-11-21T15:46:28.026Z,52.29
2022-11-21T15:48:57.287Z,53.10
2022-11-21T15:51:59.552Z,53.18
2022-11-21T15:54:20.826Z,53.96
2022-11-21T15:56:47.363Z,54.31
2022-11-21T15:59:15.406Z,54.67
2022-11-21T16:01:42.117Z,54.97
2022-11-21T16:04:11.701Z,55.56
2022-11-21T16:06:38.086Z,56.17
2022-11-21T16:09:04.915Z,56.71
2022-11-21T16:11:33.770Z,57.46
2022-11-21T16:14:02.669Z,58.08
2022-11-21T16:16:34.022Z,58.05
2022-11-21T16:19:00.627Z,58.41
2022-11-21T16:21:27.215Z,58.26
2022-11-21T16:23:54.808Z,58.50
2022-11-21T16:26:22.170Z,58.63
2022-11-21T16:28:48.479Z,58.81
2022-11-21T16:31:19.948Z,58.86
2022-11-21T16:33:47.049Z,58.90
2022-11-21T16:36:18.717Z,59.26
2022-11-21T16:38:45.050Z,59.44
2022-11-21T16:41:11.733Z,59.41
2022-11-21T16:43:46.439Z,58.98
2022-11-21T16:46:13.171Z,58.89
2022-11-21T16:48:39.639Z,59.31
2022-11-21T16:51:23.861Z,58.93
2022-11-21T16:53:50.602Z,58.81
2022-11-21T16:56:17.062Z,58.80
2022-11-21T16:58:43.390Z,58.63
2022-11-21T17:01:12.269Z,58.52
2022-11-21T17:03:40.577Z,58.47
2022-11-21T17:06:07.834Z,58.54
2022-11-21T17:08:34.990Z,58.79
2022-11-21T17:11:12.561Z,58.89
2022-11-21T17:13:39.105Z,58.46
2022-11-21T17:16:06.906Z,58.52
2022-11-21T17:18:33.726Z,58.20
2022-11-21T17:21:04.517Z,58.38
2022-11-21T17:23:32.641Z,58.51
2022-11-21T17:26:10.382Z,59.16
2022-11-21T17:28:39.771Z,59.21
2022-11-21T17:31:15.579Z,59.10
2022-11-21T17:33:43.134Z,59.07
2022-11-21T17:36:14.735Z,59.56
2022-11-21T17:38:43.123Z,58.88
2022-11-21T17:41:14.073Z,59.14
2022-11-21T17:43:41.013Z,59.25
2022-11-21T17:46:11.891Z,59.13
2022-11-21T17:48:38.553Z,59.31
2022-11-21T17:51:14.050Z,59.82
2022-11-21T17:53:42.827Z,60.71
2022-11-21T17:56:18.286Z,63.45
2022-11-21T17:58:44.930Z,65.48
2022-11-21T18:01:13.913Z,65.61
2022-11-21T18:03:40.608Z,64.73
2022-11-21T18:06:11.748Z,64.43
2022-11-21T18:08:40.694Z,66.11
2022-11-21T18:11:09.372Z,65.69
2022-11-21T18:13:36.393Z,66.40
2022-11-21T18:16:05.181Z,67.89
2022-11-21T18:18:32.241Z,66.33
2022-11-21T18:21:06.095Z,65.16
2022-11-21T18:23:32.647Z,65.14
2022-11-21T18:26:04.576Z,64.52
2022-11-21T18:28:31.857Z,64.23
2022-11-21T18:31:08.769Z,63.98
2022-11-21T18:33:36.594Z,63.60
2022-11-21T18:36:05.346Z,63.27
2022-11-21T18:38:58.465Z,63.42
2022-11-21T18:41:26.657Z,63.25
2022-11-21T18:44:19.993Z,63.00
2022-11-21T18:46:48.166Z,63.29
2022-11-21T18:49:14.725Z,63.25
2022-11-21T18:51:41.050Z,63.11
2022-11-21T18:54:09.441Z,63.29
2022-11-21T18:56:37.766Z,63.12
2022-11-21T18:59:06.189Z,63.27
2022-11-21T19:01:34.012Z,63.34
2022-11-21T19:04:00.896Z,63.53
2022-11-21T19:06:27.762Z,63.25
2022-11-21T19:08:55.515Z,63.02
2022-11-21T19:11:24.860Z,62.95
2022-11-21T19:13:51.982Z,63.14
2022-11-21T19:16:20.339Z,63.06
2022-11-21T19:19:05.535Z,63.09
2022-11-21T19:21:38.250Z,63.44
2022-11-21T19:24:06.701Z,63.25
2022-11-21T19:26:33.203Z,63.43
2022-11-21T19:28:59.548Z,63.17
2022-11-21T19:31:26.127Z,63.28
2022-11-21T19:33:52.473Z,62.92
2022-11-21T19:36:23.606Z,62.99
2022-11-21T19:38:51.780Z,63.28
2022-11-21T19:41:21.310Z,63.42
2022-11-21T19:43:52.014Z,63.84
2022-11-21T19:46:31.110Z,64.56
2022-11-21T19:48:58.545Z,66.21
2022-11-21T19:51:29.906Z,67.54
2022-11-21T19:53:56.437Z,69.89
2022-11-21T19:56:25.095Z,69.95
2022-11-21T19:58:52.667Z,70.32
2022-11-21T20:01:21.546Z,69.51
2022-11-21T20:03:50.337Z,69.80
2022-11-21T20:06:23.021Z,70.55
2022-11-21T20:08:51.385Z,70.12
2022-11-21T20:11:17.788Z,69.54
2022-11-21T20:13:45.393Z,69.26
2022-11-21T20:16:30.411Z,68.80
2022-11-21T20:19:02.364Z,68.77
2022-11-21T20:21:29.295Z,68.67
2022-11-21T20:23:55.689Z,70.55
2022-11-21T20:26:23.389Z,70.59
2022-11-21T20:28:50.702Z,70.05
2022-11-21T20:31:22.867Z,69.74
2022-11-21T20:33:52.789Z,69.34
2022-11-21T20:36:21.491Z,68.50
2022-11-21T20:38:53.693Z,68.65
2022-11-21T20:41:21.636Z,69.11
2022-11-21T20:44:53.236Z,69.76
2022-11-21T20:46:34.733Z,70.43
2022-11-21T20:49:01.482Z,72.15
2022-11-21T20:53:00.988Z,71.40
2022-11-21T20:54:14.269Z,72.79
2022-11-21T20:56:44.170Z,72.44
2022-11-21T20:59:12.085Z,72.92
2022-11-21T21:01:38.501Z,72.43
2022-11-21T21:04:04.911Z,71.62
2022-11-21T21:06:31.769Z,71.83
2022-11-21T21:08:58.158Z,71.96
2022-11-21T21:11:50.235Z,73.55
2022-11-21T21:14:11.337Z,74.72
2022-11-21T21:16:37.639Z,74.27
2022-11-21T21:19:04.044Z,74.51
2022-11-21T21:21:33.202Z,75.08
2022-11-21T21:24:02.390Z,74.58
2022-11-21T21:26:34.493Z,75.04
2022-11-21T21:29:03.985Z,75.56
2022-11-21T21:31:30.856Z,76.89
2022-11-21T21:33:58.230Z,77.36
2022-11-21T21:36:26.162Z,77.65
2022-11-21T21:38:59.346Z,77.21
2022-11-21T21:41:27.910Z,77.73
2022-11-21T21:43:55.333Z,78.20
2022-11-21T21:46:24.090Z,78.73
2022-11-21T21:48:54.603Z,78.50
2022-11-21T21:51:23.849Z,79.73
2022-11-21T21:53:51.983Z,79.71
2022-11-21T21:56:20.493Z,79.80
2022-11-21T21:58:48.571Z,79.49
2022-11-21T22:01:23.200Z,79.26
2022-11-21T22:03:53.630Z,79.88
2022-11-21T22:06:20.066Z,79.33
2022-11-21T22:08:48.276Z,79.59
2022-11-21T22:11:23.501Z,79.49
2022-11-21T22:13:58.490Z,80.71
2022-11-21T22:16:25.275Z,80.09
2022-11-21T22:18:52.065Z,81.28
2022-11-21T22:21:19.969Z,81.72
2022-11-21T22:24:09.819Z,81.94
2022-11-21T22:26:33.826Z,81.92
2022-11-21T22:29:00.172Z,81.90
2022-11-21T22:31:30.598Z,82.14
2022-11-21T22:33:57.492Z,82.00
2022-11-21T22:36:23.905Z,82.08
2022-11-21T22:38:53.616Z,82.61
2022-11-21T22:41:25.587Z,82.85
2022-11-21T22:43:54.602Z,83.21
2022-11-21T22:46:22.007Z,83.69
2022-11-21T22:48:48.803Z,83.90
2022-11-21T22:51:19.413Z,84.26
2022-11-21T22:53:49.512Z,84.52
2022-11-21T22:56:18.486Z,84.19
2022-11-21T22:58:45.558Z,84.25
2022-11-21T23:01:18.504Z,84.15
2022-11-21T23:03:45.260Z,84.55
2022-11-21T23:06:16.858Z,84.17
2022-11-21T23:08:44.125Z,84.51
2022-11-21T23:11:13.258Z,83.84
2022-11-21T23:13:42.511Z,82.64
2022-11-21T23:16:09.576Z,82.88
2022-11-21T23:18:36.557Z,83.21
2022-11-21T23:21:04.571Z,83.85
2022-11-21T23:23:31.269Z,84.30
2022-11-21T23:25:57.733Z,84.02
2022-11-21T23:28:24.091Z,84.40
2022-11-21T23:30:50.693Z,84.63
2022-11-21T23:33:17.309Z,84.49
2022-11-21T23:35:44.574Z,83.81
2022-11-21T23:38:11.541Z,83.70
2022-11-21T23:40:37.878Z,83.96
2022-11-21T23:43:04.272Z,83.33
2022-11-21T23:45:30.827Z,83.46
2022-11-21T23:47:57.131Z,83.94
2022-11-21T23:50:23.466Z,84.58
2022-11-21T23:52:49.928Z,84.12
2022-11-21T23:55:17.089Z,83.26
2022-11-21T23:57:48.159Z,82.86
